sensor_id;sensor_type;location;lat;lon;timestamp;pressure;altitude;pressure_sealevel;temperature;humidity
11499;BME280;5806;48.748;9.278;2023-05-23T00:02:16;101094.22;;;16.63;73.15
11499;BME280;5806;48.748;9.278;2023-05-23T00:04:44;101091.46;;;16.73;73.28
11499;BME280;5806;48.748;9.278;2023-05-23T00:07:11;101095.91;;;16.81;72.98
11499;BME280;5806;48.748;9.278;2023-05-23T00:09:39;101091.19;;;16.87;72.71
11499;BME280;5806;48.748;9.278;2023-05-23T00:12:07;101086.23;;;16.89;73.00
11499;BME280;5806;48.748;9.278;2023-05-23T00:14:34;101091.42;;;16.60;74.29
11499;BME280;5806;48.748;9.278;2023-05-23T00:17:02;101073.50;;;16.70;73.66
11499;BME280;5806;48.748;9.278;2023-05-23T00:19:31;101081.52;;;16.72;73.38
11499;BME280;5806;48.748;9.278;2023-05-23T00:22:00;101079.03;;;16.73;73.77
11499;BME280;5806;48.748;9.278;2023-05-23T00:24:28;101076.27;;;16.65;73.81
11499;BME280;5806;48.748;9.278;2023-05-23T00:26:56;101084.25;;;16.67;73.90
11499;BME280;5806;48.748;9.278;2023-05-23T00:29:24;101083.98;;;16.58;74.29
11499;BME280;5806;48.748;9.278;2023-05-23T00:31:51;101090.30;;;16.51;74.79
11499;BME280;5806;48.748;9.278;2023-05-23T00:34:19;101096.94;;;16.55;74.09
11499;BME280;5806;48.748;9.278;2023-05-23T00:36:47;101103.84;;;16.58;73.88
11499;BME280;5806;48.748;9.278;2023-05-23T00:39:16;101104.42;;;16.60;74.18
11499;BME280;5806;48.748;9.278;2023-05-23T00:41:51;101105.80;;;16.55;74.16
11499;BME280;5806;48.748;9.278;2023-05-23T00:44:15;101097.25;;;16.66;74.05
11499;BME280;5806;48.748;9.278;2023-05-23T00:46:48;101101.93;;;16.61;73.82
11499;BME280;5806;48.748;9.278;2023-05-23T00:49:15;101104.11;;;16.54;74.24
11499;BME280;5806;48.748;9.278;2023-05-23T00:51:45;101101.13;;;16.63;73.64
11499;BME280;5806;48.748;9.278;2023-05-23T00:54:17;101101.09;;;16.60;73.89
11499;BME280;5806;48.748;9.278;2023-05-23T00:56:45;101097.52;;;16.55;73.85
11499;BME280;5806;48.748;9.278;2023-05-23T00:59:15;101096.67;;;16.62;73.95
11499;BME280;5806;48.748;9.278;2023-05-23T01:01:43;101101.66;;;16.62;74.17
11499;BME280;5806;48.748;9.278;2023-05-23T01:04:14;101099.20;;;16.73;73.22
11499;BME280;5806;48.748;9.278;2023-05-23T01:06:42;101098.91;;;16.72;73.22
11499;BME280;5806;48.748;9.278;2023-05-23T01:09:12;101098.90;;;16.60;73.24
11499;BME280;5806;48.748;9.278;2023-05-23T01:14:48;101097.78;;;16.53;73.42
11499;BME280;5806;48.748;9.278;2023-05-23T01:17:14;101106.64;;;16.63;72.67
11499;BME280;5806;48.748;9.278;2023-05-23T01:22:22;101106.92;;;16.69;72.42
11499;BME280;5806;48.748;9.278;2023-05-23T01:24:54;101105.81;;;16.67;72.36
11499;BME280;5806;48.748;9.278;2023-05-23T01:27:51;101110.48;;;16.59;72.80
11499;BME280;5806;48.748;9.278;2023-05-23T01:30:20;101110.26;;;16.81;71.47
11499;BME280;5806;48.748;9.278;2023-05-23T01:32:50;101110.83;;;16.85;71.25
11499;BME280;5806;48.748;9.278;2023-05-23T01:35:24;101113.81;;;16.61;71.76
11499;BME280;5806;48.748;9.278;2023-05-23T01:37:57;101104.42;;;16.65;72.65
11499;BME280;5806;48.748;9.278;2023-05-23T01:40:23;101101.66;;;16.67;72.41
11499;BME280;5806;48.748;9.278;2023-05-23T01:42:53;101099.44;;;16.57;71.75
11499;BME280;5806;48.748;9.278;2023-05-23T01:45:24;101102.23;;;16.69;71.58
11499;BME280;5806;48.748;9.278;2023-05-23T01:47:53;101100.02;;;16.71;71.55
11499;BME280;5806;48.748;9.278;2023-05-23T01:50:23;101105.00;;;16.72;71.78
11499;BME280;5806;48.748;9.278;2023-05-23T01:52:51;101110.75;;;16.55;72.89
11499;BME280;5806;48.748;9.278;2023-05-23T01:55:21;101120.45;;;16.63;72.22
11499;BME280;5806;48.748;9.278;2023-05-23T01:57:56;101122.38;;;16.67;72.08
11499;BME280;5806;48.748;9.278;2023-05-23T02:00:24;101130.66;;;16.57;73.31
11499;BME280;5806;48.748;9.278;2023-05-23T02:02:52;101136.13;;;16.50;72.84
11499;BME280;5806;48.748;9.278;2023-05-23T02:05:19;101138.50;;;16.26;71.50
11499;BME280;5806;48.748;9.278;2023-05-23T02:07:47;101132.19;;;16.33;70.88
11499;BME280;5806;48.748;9.278;2023-05-23T02:10:14;101142.76;;;16.46;71.02
11499;BME280;5806;48.748;9.278;2023-05-23T02:12:42;101143.05;;;16.52;69.76
11499;BME280;5806;48.748;9.278;2023-05-23T02:15:09;101140.27;;;16.45;68.36
11499;BME280;5806;48.748;9.278;2023-05-23T02:17:37;101140.27;;;16.47;68.98
11499;BME280;5806;48.748;9.278;2023-05-23T02:20:06;101140.27;;;16.45;69.00
11499;BME280;5806;48.748;9.278;2023-05-23T02:22:34;101140.31;;;16.55;68.39
11499;BME280;5806;48.748;9.278;2023-05-23T02:25:01;101140.54;;;16.46;68.75
11499;BME280;5806;48.748;9.278;2023-05-23T02:27:29;101145.74;;;16.40;69.52
11499;BME280;5806;48.748;9.278;2023-05-23T02:29:57;101145.24;;;16.43;69.67
11499;BME280;5806;48.748;9.278;2023-05-23T02:32:24;101142.67;;;16.36;69.63
11499;BME280;5806;48.748;9.278;2023-05-23T02:34:52;101147.38;;;16.31;69.00
11499;BME280;5806;48.748;9.278;2023-05-23T02:37:19;101147.64;;;16.32;69.47
11499;BME280;5806;48.748;9.278;2023-05-23T02:39:47;101152.90;;;16.33;69.76
11499;BME280;5806;48.748;9.278;2023-05-23T02:42:14;101151.04;;;16.44;68.86
11499;BME280;5806;48.748;9.278;2023-05-23T02:44:42;101153.16;;;16.32;69.73
11499;BME280;5806;48.748;9.278;2023-05-23T02:47:10;101159.80;;;16.33;69.76
11499;BME280;5806;48.748;9.278;2023-05-23T02:49:38;101151.19;;;16.25;68.91
11499;BME280;5806;48.748;9.278;2023-05-23T02:52:05;101155.39;;;16.35;69.21
11499;BME280;5806;48.748;9.278;2023-05-23T02:54:33;101151.46;;;16.26;70.14
11499;BME280;5806;48.748;9.278;2023-05-23T02:57:01;101152.15;;;16.43;69.13
11499;BME280;5806;48.748;9.278;2023-05-23T02:59:29;101147.70;;;16.44;69.17
11499;BME280;5806;48.748;9.278;2023-05-23T03:01:57;101148.49;;;16.35;69.94
11499;BME280;5806;48.748;9.278;2023-05-23T03:04:24;101148.17;;;16.29;70.31
11499;BME280;5806;48.748;9.278;2023-05-23T03:06:52;101145.25;;;16.45;69.20
11499;BME280;5806;48.748;9.278;2023-05-23T03:09:21;101145.25;;;16.45;69.43
11499;BME280;5806;48.748;9.278;2023-05-23T03:11:48;101148.16;;;16.24;69.94
11499;BME280;5806;48.748;9.278;2023-05-23T03:14:16;101140.48;;;16.36;69.43
11499;BME280;5806;48.748;9.278;2023-05-23T03:16:44;101146.53;;;16.33;70.09
11499;BME280;5806;48.748;9.278;2023-05-23T03:19:11;101154.23;;;16.28;70.07
11499;BME280;5806;48.748;9.278;2023-05-23T03:21:39;101147.92;;;16.38;69.54
11499;BME280;5806;48.748;9.278;2023-05-23T03:24:06;101142.14;;;16.39;70.21
11499;BME280;5806;48.748;9.278;2023-05-23T03:26:34;101155.19;;;16.46;69.32
11499;BME280;5806;48.748;9.278;2023-05-23T03:29:02;101161.73;;;16.38;69.74
11499;BME280;5806;48.748;9.278;2023-05-23T03:31:29;101158.36;;;16.23;70.57
11499;BME280;5806;48.748;9.278;2023-05-23T03:33:57;101163.69;;;16.40;69.97
11499;BME280;5806;48.748;9.278;2023-05-23T03:36:24;101167.78;;;16.32;70.48
11499;BME280;5806;48.748;9.278;2023-05-23T03:38:53;101165.27;;;16.26;71.01
11499;BME280;5806;48.748;9.278;2023-05-23T03:41:21;101165.84;;;16.28;70.42
11499;BME280;5806;48.748;9.278;2023-05-23T03:43:48;101166.14;;;16.36;70.39
11499;BME280;5806;48.748;9.278;2023-05-23T03:46:16;101163.36;;;16.31;70.82
11499;BME280;5806;48.748;9.278;2023-05-23T03:48:43;101166.70;;;16.31;71.01
11499;BME280;5806;48.748;9.278;2023-05-23T03:51:11;101170.27;;;16.34;71.17
11499;BME280;5806;48.748;9.278;2023-05-23T03:53:41;101164.19;;;16.27;71.50
11499;BME280;5806;48.748;9.278;2023-05-23T03:56:09;101168.29;;;16.24;72.48
11499;BME280;5806;48.748;9.278;2023-05-23T03:58:36;101167.48;;;16.24;73.07
11499;BME280;5806;48.748;9.278;2023-05-23T04:01:04;101163.33;;;16.21;73.15
11499;BME280;5806;48.748;9.278;2023-05-23T04:03:32;101161.57;;;16.00;73.71
11499;BME280;5806;48.748;9.278;2023-05-23T04:06:00;101167.75;;;16.25;73.04
11499;BME280;5806;48.748;9.278;2023-05-23T04:08:28;101170.48;;;16.17;73.71
11499;BME280;5806;48.748;9.278;2023-05-23T04:10:57;101172.11;;;16.11;73.84
11499;BME280;5806;48.748;9.278;2023-05-23T04:13:25;101169.36;;;16.13;73.18
11499;BME280;5806;48.748;9.278;2023-05-23T04:15:53;101170.98;;;16.07;73.28
11499;BME280;5806;48.748;9.278;2023-05-23T04:18:24;101181.78;;;16.13;73.13
11499;BME280;5806;48.748;9.278;2023-05-23T04:20:52;101182.91;;;16.20;72.73
11499;BME280;5806;48.748;9.278;2023-05-23T04:23:19;101182.91;;;16.17;72.90
11499;BME280;5806;48.748;9.278;2023-05-23T04:25:47;101180.14;;;16.17;72.65
11499;BME280;5806;48.748;9.278;2023-05-23T04:28:14;101187.78;;;16.00;73.43
11499;BME280;5806;48.748;9.278;2023-05-23T04:30:43;101193.34;;;16.10;72.68
11499;BME280;5806;48.748;9.278;2023-05-23T04:33:11;101190.01;;;16.08;72.65
11499;BME280;5806;48.748;9.278;2023-05-23T04:35:38;101199.39;;;16.07;72.03
11499;BME280;5806;48.748;9.278;2023-05-23T04:38:06;101202.39;;;16.01;72.28
11499;BME280;5806;48.748;9.278;2023-05-23T04:40:33;101192.50;;;16.10;72.20
11499;BME280;5806;48.748;9.278;2023-05-23T04:43:01;101189.95;;;15.98;72.03
11499;BME280;5806;48.748;9.278;2023-05-23T04:45:29;101199.39;;;16.07;72.37
11499;BME280;5806;48.748;9.278;2023-05-23T04:47:57;101198.77;;;15.98;72.50
11499;BME280;5806;48.748;9.278;2023-05-23T04:50:24;101205.63;;;15.90;72.42
11499;BME280;5806;48.748;9.278;2023-05-23T04:52:53;101203.22;;;15.99;72.47
11499;BME280;5806;48.748;9.278;2023-05-23T04:55:21;101209.55;;;15.99;73.40
11499;BME280;5806;48.748;9.278;2023-05-23T04:57:48;101209.81;;;15.98;73.15
11499;BME280;5806;48.748;9.278;2023-05-23T05:00:17;101213.06;;;15.90;73.84
11499;BME280;5806;48.748;9.278;2023-05-23T05:02:45;101223.70;;;15.74;74.70
11499;BME280;5806;48.748;9.278;2023-05-23T05:05:13;101224.34;;;15.86;75.02
11499;BME280;5806;48.748;9.278;2023-05-23T05:07:40;101216.87;;;15.79;75.45
11499;BME280;5806;48.748;9.278;2023-05-23T05:10:08;101222.12;;;15.80;75.45
11499;BME280;5806;48.748;9.278;2023-05-23T05:12:38;101225.41;;;15.77;76.06
11499;BME280;5806;48.748;9.278;2023-05-23T05:15:06;101223.77;;;15.79;76.15
11499;BME280;5806;48.748;9.278;2023-05-23T05:17:34;101222.52;;;15.62;77.37
11499;BME280;5806;48.748;9.278;2023-05-23T05:20:03;101225.77;;;15.57;77.35
11499;BME280;5806;48.748;9.278;2023-05-23T05:22:33;101226.39;;;15.64;77.30
11499;BME280;5806;48.748;9.278;2023-05-23T05:25:02;101230.32;;;15.73;77.28
11499;BME280;5806;48.748;9.278;2023-05-23T05:27:32;101227.82;;;15.71;77.62
11499;BME280;5806;48.748;9.278;2023-05-23T05:29:59;101229.13;;;15.61;77.71
11499;BME280;5806;48.748;9.278;2023-05-23T05:32:28;101229.52;;;15.72;76.98
11499;BME280;5806;48.748;9.278;2023-05-23T05:34:58;101230.32;;;15.73;77.04
11499;BME280;5806;48.748;9.278;2023-05-23T05:37:26;101230.82;;;15.67;77.26
11499;BME280;5806;48.748;9.278;2023-05-23T05:39:54;101234.84;;;15.86;75.78
11499;BME280;5806;48.748;9.278;2023-05-23T05:42:22;101236.22;;;15.86;75.52
11499;BME280;5806;48.748;9.278;2023-05-23T05:44:50;101238.88;;;15.74;76.69
11499;BME280;5806;48.748;9.278;2023-05-23T05:47:17;101242.81;;;15.80;76.58
11499;BME280;5806;48.748;9.278;2023-05-23T05:49:44;101238.46;;;15.89;75.99
11499;BME280;5806;48.748;9.278;2023-05-23T05:52:12;101237.80;;;15.75;75.78
11499;BME280;5806;48.748;9.278;2023-05-23T05:54:39;101240.82;;;15.73;76.18
11499;BME280;5806;48.748;9.278;2023-05-23T05:57:07;101240.84;;;15.76;76.20
11499;BME280;5806;48.748;9.278;2023-05-23T05:59:34;101241.13;;;15.79;76.16
11499;BME280;5806;48.748;9.278;2023-05-23T06:02:01;101243.49;;;15.66;76.79
11499;BME280;5806;48.748;9.278;2023-05-23T06:04:29;101247.47;;;15.77;75.81
11499;BME280;5806;48.748;9.278;2023-05-23T06:06:57;101257.74;;;15.84;75.09
11499;BME280;5806;48.748;9.278;2023-05-23T06:09:24;101258.06;;;15.93;74.80
11499;BME280;5806;48.748;9.278;2023-05-23T06:11:52;101259.94;;;15.85;75.34
11499;BME280;5806;48.748;9.278;2023-05-23T06:14:19;101256.64;;;15.85;75.19
11499;BME280;5806;48.748;9.278;2023-05-23T06:16:46;101258.50;;;15.77;76.22
11499;BME280;5806;48.748;9.278;2023-05-23T06:19:14;101257.98;;;15.80;74.77
11499;BME280;5806;48.748;9.278;2023-05-23T06:21:41;101259.30;;;15.75;75.18
11499;BME280;5806;48.748;9.278;2023-05-23T06:24:09;101267.33;;;15.79;75.68
11499;BME280;5806;48.748;9.278;2023-05-23T06:26:36;101263.27;;;15.87;75.56
11499;BME280;5806;48.748;9.278;2023-05-23T06:29:04;101264.64;;;15.84;75.28
11499;BME280;5806;48.748;9.278;2023-05-23T06:31:31;101261.66;;;15.91;74.76
11499;BME280;5806;48.748;9.278;2023-05-23T06:33:59;101263.81;;;15.86;74.27
11499;BME280;5806;48.748;9.278;2023-05-23T06:36:27;101264.67;;;15.89;74.51
11499;BME280;5806;48.748;9.278;2023-05-23T06:38:54;101274.55;;;15.83;74.62
11499;BME280;5806;48.748;9.278;2023-05-23T06:41:21;101271.37;;;15.67;75.73
11499;BME280;5806;48.748;9.278;2023-05-23T06:43:49;101264.03;;;15.80;75.42
11499;BME280;5806;48.748;9.278;2023-05-23T06:46:16;101272.86;;;15.82;75.22
11499;BME280;5806;48.748;9.278;2023-05-23T06:48:44;101270.57;;;15.71;76.21
11499;BME280;5806;48.748;9.278;2023-05-23T06:51:11;101272.62;;;15.86;75.35
11499;BME280;5806;48.748;9.278;2023-05-23T06:53:39;101278.97;;;15.84;75.33
11499;BME280;5806;48.748;9.278;2023-05-23T06:56:06;101277.53;;;15.76;75.14
11499;BME280;5806;48.748;9.278;2023-05-23T06:58:33;101276.83;;;15.62;75.77
11499;BME280;5806;48.748;9.278;2023-05-23T07:01:01;101282.91;;;15.61;76.67
11499;BME280;5806;48.748;9.278;2023-05-23T07:03:28;101282.42;;;15.69;76.17
11499;BME280;5806;48.748;9.278;2023-05-23T07:05:56;101282.97;;;15.69;75.92
11499;BME280;5806;48.748;9.278;2023-05-23T07:08:23;101283.11;;;15.84;75.09
11499;BME280;5806;48.748;9.278;2023-05-23T07:10:51;101290.00;;;15.84;74.83
11499;BME280;5806;48.748;9.278;2023-05-23T07:13:18;101292.59;;;15.66;75.01
11499;BME280;5806;48.748;9.278;2023-05-23T07:15:45;101295.27;;;15.88;74.14
11499;BME280;5806;48.748;9.278;2023-05-23T07:18:13;101295.72;;;15.75;74.14
11499;BME280;5806;48.748;9.278;2023-05-23T07:20:40;101300.50;;;15.84;74.21
11499;BME280;5806;48.748;9.278;2023-05-23T07:23:08;101305.17;;;15.84;74.47
11499;BME280;5806;48.748;9.278;2023-05-23T07:25:35;101307.10;;;15.86;74.57
11499;BME280;5806;48.748;9.278;2023-05-23T07:28:04;101315.28;;;15.73;74.85
11499;BME280;5806;48.748;9.278;2023-05-23T07:30:32;101309.44;;;15.70;74.42
11499;BME280;5806;48.748;9.278;2023-05-23T07:32:59;101314.84;;;15.86;73.51
11499;BME280;5806;48.748;9.278;2023-05-23T07:35:27;101321.52;;;15.93;73.52
11499;BME280;5806;48.748;9.278;2023-05-23T07:37:54;101314.63;;;15.93;73.29
11499;BME280;5806;48.748;9.278;2023-05-23T07:40:23;101314.63;;;15.93;72.95
11499;BME280;5806;48.748;9.278;2023-05-23T07:42:50;101316.96;;;15.77;72.33
11499;BME280;5806;48.748;9.278;2023-05-23T07:45:19;101320.34;;;15.84;72.19
11499;BME280;5806;48.748;9.278;2023-05-23T07:47:47;101322.44;;;15.72;72.53
11499;BME280;5806;48.748;9.278;2023-05-23T07:50:15;101324.36;;;15.71;71.99
11499;BME280;5806;48.748;9.278;2023-05-23T07:52:43;101330.86;;;15.87;70.98
11499;BME280;5806;48.748;9.278;2023-05-23T07:55:10;101328.94;;;15.90;72.37
11499;BME280;5806;48.748;9.278;2023-05-23T07:57:38;101333.86;;;15.83;71.01
11499;BME280;5806;48.748;9.278;2023-05-23T08:00:06;101337.52;;;15.91;70.48
11499;BME280;5806;48.748;9.278;2023-05-23T08:02:35;101337.16;;;15.82;71.57
11499;BME280;5806;48.748;9.278;2023-05-23T08:05:02;101343.41;;;15.73;71.64
11499;BME280;5806;48.748;9.278;2023-05-23T08:07:30;101335.58;;;15.62;71.79
11499;BME280;5806;48.748;9.278;2023-05-23T08:09:57;101342.66;;;15.80;72.24
11499;BME280;5806;48.748;9.278;2023-05-23T08:12:24;101338.31;;;15.89;70.50
11499;BME280;5806;48.748;9.278;2023-05-23T08:14:52;101340.56;;;15.63;71.28
11499;BME280;5806;48.748;9.278;2023-05-23T08:17:19;101345.97;;;15.82;70.76
11499;BME280;5806;48.748;9.278;2023-05-23T08:19:47;101348.72;;;15.82;71.50
11499;BME280;5806;48.748;9.278;2023-05-23T08:22:14;101351.24;;;15.86;70.20
11499;BME280;5806;48.748;9.278;2023-05-23T08:24:42;101353.48;;;15.89;70.40
11499;BME280;5806;48.748;9.278;2023-05-23T08:27:09;101353.77;;;15.90;71.78
11499;BME280;5806;48.748;9.278;2023-05-23T08:29:37;101351.22;;;15.83;70.77
11499;BME280;5806;48.748;9.278;2023-05-23T08:32:04;101361.61;;;15.74;70.58
11499;BME280;5806;48.748;9.278;2023-05-23T08:34:32;101367.36;;;15.70;70.86
11499;BME280;5806;48.748;9.278;2023-05-23T08:36:59;101367.80;;;15.86;70.91
11499;BME280;5806;48.748;9.278;2023-05-23T08:39:26;101365.04;;;15.86;70.39
11499;BME280;5806;48.748;9.278;2023-05-23T08:41:54;101369.80;;;15.64;71.29
11499;BME280;5806;48.748;9.278;2023-05-23T08:44:21;101370.33;;;15.63;71.04
11499;BME280;5806;48.748;9.278;2023-05-23T08:46:51;101374.86;;;15.74;70.59
11499;BME280;5806;48.748;9.278;2023-05-23T08:49:19;101377.17;;;15.85;70.04
11499;BME280;5806;48.748;9.278;2023-05-23T08:51:51;101370.26;;;15.56;70.81
11499;BME280;5806;48.748;9.278;2023-05-23T08:54:19;101375.27;;;15.59;70.93
11499;BME280;5806;48.748;9.278;2023-05-23T08:56:47;101379.19;;;15.65;70.63
11499;BME280;5806;48.748;9.278;2023-05-23T08:59:17;101380.11;;;15.73;71.05
11499;BME280;5806;48.748;9.278;2023-05-23T09:01:47;101378.34;;;15.65;70.79
11499;BME280;5806;48.748;9.278;2023-05-23T09:04:15;101384.33;;;15.83;70.74
11499;BME280;5806;48.748;9.278;2023-05-23T09:06:42;101391.62;;;15.68;70.96
11499;BME280;5806;48.748;9.278;2023-05-23T09:09:09;101392.86;;;15.82;70.35
11499;BME280;5806;48.748;9.278;2023-05-23T09:11:37;101399.52;;;15.59;70.86
11499;BME280;5806;48.748;9.278;2023-05-23T09:14:05;101392.61;;;15.83;70.27
11499;BME280;5806;48.748;9.278;2023-05-23T09:16:34;101394.36;;;15.92;70.15
11499;BME280;5806;48.748;9.278;2023-05-23T09:19:12;101401.06;;;15.74;70.18
11499;BME280;5806;48.748;9.278;2023-05-23T09:21:32;101400.91;;;15.86;69.78
11499;BME280;5806;48.748;9.278;2023-05-23T09:23:59;101398.73;;;15.88;68.45
11499;BME280;5806;48.748;9.278;2023-05-23T09:26:26;101401.66;;;15.76;69.45
11499;BME280;5806;48.748;9.278;2023-05-23T09:28:56;101405.73;;;15.74;70.01
11499;BME280;5806;48.748;9.278;2023-05-23T09:31:27;101411.25;;;15.74;69.04
11499;BME280;5806;48.748;9.278;2023-05-23T09:33:57;101411.48;;;15.70;69.68
11499;BME280;5806;48.748;9.278;2023-05-23T09:36:28;101419.44;;;15.64;69.93
11499;BME280;5806;48.748;9.278;2023-05-23T09:38:56;101419.18;;;15.65;69.89
11499;BME280;5806;48.748;9.278;2023-05-23T09:41:28;101422.37;;;15.55;70.96
11499;BME280;5806;48.748;9.278;2023-05-23T09:43:56;101423.77;;;15.17;71.32
11499;BME280;5806;48.748;9.278;2023-05-23T09:46:27;101427.06;;;15.57;70.61
11499;BME280;5806;48.748;9.278;2023-05-23T09:48:56;101428.39;;;15.52;69.26
11499;BME280;5806;48.748;9.278;2023-05-23T09:51:25;101424.50;;;15.31;70.71
11499;BME280;5806;48.748;9.278;2023-05-23T09:53:53;101426.39;;;15.47;71.08
11499;BME280;5806;48.748;9.278;2023-05-23T09:56:22;101439.63;;;15.45;70.65
11499;BME280;5806;48.748;9.278;2023-05-23T09:58:51;101431.20;;;15.35;70.55
11499;BME280;5806;48.748;9.278;2023-05-23T10:01:21;101433.52;;;15.43;71.32
11499;BME280;5806;48.748;9.278;2023-05-23T10:03:52;101437.84;;;15.37;70.70
11499;BME280;5806;48.748;9.278;2023-05-23T10:06:33;101442.80;;;15.56;69.99
11499;BME280;5806;48.748;9.278;2023-05-23T10:09:05;101446.16;;;15.01;71.46
11499;BME280;5806;48.748;9.278;2023-05-23T10:14:09;101440.97;;;15.43;70.45
11499;BME280;5806;48.748;9.278;2023-05-23T10:19:23;101442.33;;;15.24;71.34
11499;BME280;5806;48.748;9.278;2023-05-23T10:21:55;101445.61;;;15.40;70.31
11499;BME280;5806;48.748;9.278;2023-05-23T10:24:23;101450.39;;;15.68;69.20
11499;BME280;5806;48.748;9.278;2023-05-23T10:26:53;101444.45;;;15.57;69.43
11499;BME280;5806;48.748;9.278;2023-05-23T10:29:22;101442.41;;;15.48;69.59
11499;BME280;5806;48.748;9.278;2023-05-23T10:31:50;101450.87;;;15.63;69.42
11499;BME280;5806;48.748;9.278;2023-05-23T10:34:35;101453.54;;;15.58;69.40
11499;BME280;5806;48.748;9.278;2023-05-23T10:37:05;101445.02;;;16.10;68.55
11499;BME280;5806;48.748;9.278;2023-05-23T10:42:10;101443.56;;;15.76;69.30
11499;BME280;5806;48.748;9.278;2023-05-23T10:44:37;101448.34;;;16.09;68.71
11499;BME280;5806;48.748;9.278;2023-05-23T10:47:04;101452.67;;;16.00;67.20
11499;BME280;5806;48.748;9.278;2023-05-23T10:49:53;101453.69;;;16.21;67.07
11499;BME280;5806;48.748;9.278;2023-05-23T10:52:23;101456.53;;;16.02;65.03
11499;BME280;5806;48.748;9.278;2023-05-23T10:54:54;101461.93;;;16.16;65.99
11499;BME280;5806;48.748;9.278;2023-05-23T10:57:26;101462.94;;;16.36;65.76
11499;BME280;5806;48.748;9.278;2023-05-23T10:59:54;101466.98;;;16.50;66.33
11499;BME280;5806;48.748;9.278;2023-05-23T11:02:26;101482.95;;;16.22;65.66
11499;BME280;5806;48.748;9.278;2023-05-23T11:07:43;101476.48;;;15.85;66.12
11499;BME280;5806;48.748;9.278;2023-05-23T11:10:12;101472.60;;;16.36;65.65
11499;BME280;5806;48.748;9.278;2023-05-23T11:12:41;101482.41;;;16.46;64.80
11499;BME280;5806;48.748;9.278;2023-05-23T11:15:19;101482.55;;;16.35;63.63
11499;BME280;5806;48.748;9.278;2023-05-23T11:17:52;101492.76;;;16.08;65.21
11499;BME280;5806;48.748;9.278;2023-05-23T11:20:22;101500.05;;;15.92;65.83
11499;BME280;5806;48.748;9.278;2023-05-23T11:23:04;101505.13;;;15.79;66.39
11499;BME280;5806;48.748;9.278;2023-05-23T11:25:39;101502.84;;;15.73;66.97
11499;BME280;5806;48.748;9.278;2023-05-23T11:28:11;101504.78;;;15.75;66.85
11499;BME280;5806;48.748;9.278;2023-05-23T11:30:39;101507.22;;;15.93;65.52
11499;BME280;5806;48.748;9.278;2023-05-23T11:33:08;101509.04;;;16.07;64.27
11499;BME280;5806;48.748;9.278;2023-05-23T11:35:38;101510.98;;;16.09;65.11
11499;BME280;5806;48.748;9.278;2023-05-23T11:38:06;101514.30;;;15.63;65.64
11499;BME280;5806;48.748;9.278;2023-05-23T11:40:35;101523.98;;;15.46;66.31
11499;BME280;5806;48.748;9.278;2023-05-23T11:43:05;101533.66;;;15.30;67.15
11499;BME280;5806;48.748;9.278;2023-05-23T11:45:34;101538.69;;;15.52;66.60
11499;BME280;5806;48.748;9.278;2023-05-23T11:48:13;101538.13;;;15.17;67.78
11499;BME280;5806;48.748;9.278;2023-05-23T11:53:36;101537.42;;;15.07;67.36
11499;BME280;5806;48.748;9.278;2023-05-23T11:56:04;101536.08;;;14.91;67.23
11499;BME280;5806;48.748;9.278;2023-05-23T11:58:36;101535.89;;;15.33;66.54
11499;BME280;5806;48.748;9.278;2023-05-23T12:01:09;101526.80;;;15.70;64.72
11499;BME280;5806;48.748;9.278;2023-05-23T12:03:50;101518.91;;;16.00;64.86
11499;BME280;5806;48.748;9.278;2023-05-23T12:06:23;101512.86;;;15.82;63.96
11499;BME280;5806;48.748;9.278;2023-05-23T12:08:51;101511.42;;;15.77;64.10
11499;BME280;5806;48.748;9.278;2023-05-23T12:11:19;101514.84;;;16.08;62.84
11499;BME280;5806;48.748;9.278;2023-05-23T12:13:48;101512.61;;;16.07;62.30
11499;BME280;5806;48.748;9.278;2023-05-23T12:16:17;101516.17;;;16.03;63.50
11499;BME280;5806;48.748;9.278;2023-05-23T12:18:45;101510.98;;;16.35;62.28
11499;BME280;5806;48.748;9.278;2023-05-23T12:21:14;101508.03;;;16.42;61.40
11499;BME280;5806;48.748;9.278;2023-05-23T12:23:42;101505.16;;;16.32;60.38
11499;BME280;5806;48.748;9.278;2023-05-23T12:26:10;101506.19;;;16.26;61.10
11499;BME280;5806;48.748;9.278;2023-05-23T12:28:42;101510.55;;;16.22;61.17
11499;BME280;5806;48.748;9.278;2023-05-23T12:31:15;101513.62;;;16.23;61.69
11499;BME280;5806;48.748;9.278;2023-05-23T12:33:42;101519.92;;;15.94;62.68
11499;BME280;5806;48.748;9.278;2023-05-23T12:36:10;101523.64;;;15.62;62.94
11499;BME280;5806;48.748;9.278;2023-05-23T12:38:38;101519.81;;;15.84;63.03
11499;BME280;5806;48.748;9.278;2023-05-23T12:41:14;101515.45;;;15.88;63.10
11499;BME280;5806;48.748;9.278;2023-05-23T12:43:40;101519.45;;;15.78;61.73
11499;BME280;5806;48.748;9.278;2023-05-23T12:46:07;101517.34;;;15.64;61.76
11499;BME280;5806;48.748;9.278;2023-05-23T12:48:35;101511.91;;;15.71;61.48
11499;BME280;5806;48.748;9.278;2023-05-23T12:51:02;101522.25;;;16.05;61.88
11499;BME280;5806;48.748;9.278;2023-05-23T12:53:30;101516.23;;;15.86;61.19
11499;BME280;5806;48.748;9.278;2023-05-23T12:55:58;101519.39;;;15.73;62.25
11499;BME280;5806;48.748;9.278;2023-05-23T12:58:29;101522.94;;;15.71;61.55
11499;BME280;5806;48.748;9.278;2023-05-23T13:00:57;101522.30;;;16.10;61.16
11499;BME280;5806;48.748;9.278;2023-05-23T13:03:25;101524.83;;;16.14;60.41
11499;BME280;5806;48.748;9.278;2023-05-23T13:05:52;101530.04;;;16.10;60.46
11499;BME280;5806;48.748;9.278;2023-05-23T13:08:20;101519.42;;;15.76;59.50
11499;BME280;5806;48.748;9.278;2023-05-23T13:10:47;101525.41;;;16.16;59.88
11499;BME280;5806;48.748;9.278;2023-05-23T13:13:15;101520.31;;;16.03;61.50
11499;BME280;5806;48.748;9.278;2023-05-23T13:15:42;101518.72;;;16.09;58.64
11499;BME280;5806;48.748;9.278;2023-05-23T13:18:10;101520.70;;;16.16;60.96
11499;BME280;5806;48.748;9.278;2023-05-23T13:20:37;101534.89;;;16.01;59.84
11499;BME280;5806;48.748;9.278;2023-05-23T13:23:05;101532.98;;;16.01;59.74
11499;BME280;5806;48.748;9.278;2023-05-23T13:25:33;101530.09;;;16.15;61.09
11499;BME280;5806;48.748;9.278;2023-05-23T13:28:00;101537.58;;;16.17;60.63